createdAt,value
2022-11-29T00:02:04.332Z,87.68
2022-11-29T00:04:30.920Z,87.73
2022-11-29T00:06:57.423Z,87.86
2022-11-29T00:09:24.023Z,87.71
2022-11-29T00:12:09.148Z,87.39
2022-11-29T00:14:35.634Z,87.13
2022-11-29T00:17:03.269Z,86.25
2022-11-29T00:19:31.158Z,86.05
2022-11-29T00:21:59.214Z,86.28
2022-11-29T00:24:25.962Z,87.53
2022-11-29T00:26:52.693Z,87.42
2022-11-29T00:29:19.232Z,87.62
2022-11-29T00:31:45.768Z,87.80
2022-11-29T00:34:12.991Z,88.24
2022-11-29T00:36:40.068Z,87.79
2022-11-29T00:39:07.093Z,88.31
2022-11-29T00:41:33.769Z,87.56
2022-11-29T00:44:00.588Z,87.40
2022-11-29T00:46:27.160Z,87.18
2022-11-29T00:48:53.818Z,86.54
2022-11-29T00:51:20.399Z,87.20
2022-11-29T00:53:47.022Z,86.84
2022-11-29T00:56:14.013Z,87.23
2022-11-29T00:58:43.490Z,87.67
2022-11-29T01:01:11.181Z,87.67
2022-11-29T01:03:38.276Z,87.54
2022-11-29T01:06:07.993Z,88.28
2022-11-29T01:08:35.264Z,87.74
2022-11-29T01:11:13.154Z,88.83
2022-11-29T01:13:40.612Z,87.54
2022-11-29T01:16:07.707Z,87.36
2022-11-29T01:18:34.864Z,86.87
2022-11-29T01:21:08.241Z,87.50
2022-11-29T01:23:35.776Z,87.35
2022-11-29T01:26:06.039Z,87.21
2022-11-29T01:28:33.415Z,87.44
2022-11-29T01:31:00.145Z,88.03
2022-11-29T01:33:26.726Z,88.13
2022-11-29T01:35:54.535Z,88.36
2022-11-29T01:38:21.976Z,87.71
2022-11-29T01:41:01.680Z,89.17
2022-11-29T01:43:29.059Z,87.48
2022-11-29T01:45:56.297Z,87.10
2022-11-29T01:48:26.681Z,87.24
2022-11-29T01:50:54.989Z,87.93
2022-11-29T01:53:22.347Z,87.99
2022-11-29T01:55:54.196Z,87.74
2022-11-29T01:58:21.424Z,87.90
2022-11-29T02:00:48.420Z,88.22
2022-11-29T02:03:17.043Z,87.55
2022-11-29T02:05:47.823Z,88.42
2022-11-29T02:08:19.983Z,87.73
2022-11-29T02:11:20.433Z,88.54
2022-11-29T02:14:12.294Z,88.78
2022-11-29T02:17:10.479Z,88.83
2022-11-29T02:20:14.412Z,89.26
2022-11-29T02:23:06.669Z,89.28
2022-11-29T02:25:35.851Z,88.53
2022-11-29T02:28:18.528Z,88.83
2022-11-29T02:31:20.455Z,88.72
2022-11-29T02:34:10.870Z,88.14
2022-11-29T02:37:18.491Z,88.20
2022-11-29T02:40:22.166Z,89.06
2022-11-29T02:43:19.349Z,89.55
2022-11-29T02:45:54.335Z,89.59
2022-11-29T02:48:42.661Z,89.91
2022-11-29T02:51:22.611Z,89.48
2022-11-29T02:54:20.484Z,89.11
2022-11-29T02:57:14.591Z,89.17
2022-11-29T02:59:47.194Z,89.33
2022-11-29T03:02:32.443Z,89.47
2022-11-29T03:05:12.631Z,90.13
2022-11-29T03:08:03.463Z,90.32
2022-11-29T03:10:43.510Z,89.72
2022-11-29T03:13:24.020Z,89.73
2022-11-29T03:15:59.810Z,89.21
2022-11-29T03:18:51.523Z,90.04
2022-11-29T03:21:31.327Z,90.27
2022-11-29T03:24:04.894Z,88.94
2022-11-29T03:26:41.546Z,89.32
2022-11-29T03:29:26.586Z,89.93
2022-11-29T03:32:02.442Z,89.36
2022-11-29T03:35:02.933Z,88.88
2022-11-29T03:37:40.435Z,89.33
2022-11-29T03:40:11.769Z,89.12
2022-11-29T03:43:14.170Z,89.06
2022-11-29T03:46:02.895Z,88.71
2022-11-29T03:48:41.011Z,88.60
2022-11-29T03:51:18.824Z,89.13
2022-11-29T03:53:51.998Z,89.10
2022-11-29T03:56:34.708Z,90.06
2022-11-29T03:59:07.304Z,89.57
2022-11-29T04:02:10.998Z,89.79
2022-11-29T04:05:06.679Z,89.48
2022-11-29T04:08:01.928Z,89.54
2022-11-29T04:10:51.814Z,89.89
2022-11-29T04:14:05.763Z,89.93
2022-11-29T04:17:12.688Z,89.87
2022-11-29T04:20:03.465Z,90.21
2022-11-29T04:22:52.773Z,90.49
2022-11-29T04:25:49.410Z,90.74
2022-11-29T04:28:23.333Z,89.96
2022-11-29T04:31:33.364Z,91.04
2022-11-29T04:34:20.477Z,90.79
2022-11-29T04:37:24.425Z,90.74
2022-11-29T04:40:20.352Z,89.10
2022-11-29T04:43:03.225Z,89.47
2022-11-29T04:45:48.143Z,90.57
2022-11-29T04:48:32.695Z,90.10
2022-11-29T04:51:26.272Z,90.36
2022-11-29T04:54:08.149Z,90.43
2022-11-29T04:56:45.574Z,90.30
2022-11-29T04:59:38.084Z,90.06
2022-11-29T05:02:10.695Z,90.25
2022-11-29T05:04:53.528Z,90.10
2022-11-29T05:07:51.122Z,89.84
2022-11-29T05:10:39.118Z,90.17
2022-11-29T05:13:18.392Z,89.79
2022-11-29T05:16:06.997Z,90.11
2022-11-29T05:18:57.662Z,90.31
2022-11-29T05:22:01.959Z,90.58
2022-11-29T05:24:45.740Z,90.39
2022-11-29T05:27:33.383Z,90.85
2022-11-29T05:30:06.592Z,90.17
2022-11-29T05:32:45.055Z,90.12
2022-11-29T05:35:29.522Z,90.66
2022-11-29T05:38:23.404Z,90.59
2022-11-29T05:40:59.422Z,90.39
2022-11-29T05:43:56.297Z,90.99
2022-11-29T05:46:31.159Z,90.52
2022-11-29T05:49:14.016Z,90.25
2022-11-29T05:51:50.465Z,90.23
2022-11-29T05:54:42.456Z,91.00
2022-11-29T05:57:33.808Z,89.90
2022-11-29T06:00:05.572Z,89.26
2022-11-29T06:03:00.053Z,89.43
2022-11-29T06:05:35.971Z,89.40
2022-11-29T06:08:13.278Z,90.01
2022-11-29T06:10:52.192Z,90.00
2022-11-29T06:13:50.955Z,90.20
2022-11-29T06:16:25.124Z,89.91
2022-11-29T06:19:30.567Z,90.57
2022-11-29T06:22:27.027Z,90.47
2022-11-29T06:25:11.010Z,90.08
2022-11-29T06:28:07.364Z,90.49
2022-11-29T06:30:48.970Z,90.09
2022-11-29T06:33:25.043Z,90.16
2022-11-29T06:36:17.767Z,90.70
2022-11-29T06:38:44.838Z,90.37
2022-11-29T06:41:19.470Z,90.61
2022-11-29T06:43:46.349Z,90.41
2022-11-29T06:46:25.174Z,90.45
2022-11-29T06:49:02.094Z,90.41
2022-11-29T06:51:36.245Z,90.41
2022-11-29T06:54:10.852Z,90.29
2022-11-29T06:56:44.294Z,90.43
2022-11-29T06:59:34.477Z,90.36
2022-11-29T07:02:10.994Z,90.15
2022-11-29T07:04:51.066Z,90.81
2022-11-29T07:07:22.941Z,90.25
2022-11-29T07:09:52.238Z,89.60
2022-11-29T07:12:19.318Z,90.24
2022-11-29T07:14:46.955Z,90.24
2022-11-29T07:17:30.959Z,90.05
2022-11-29T07:20:10.010Z,90.26
2022-11-29T07:23:03.012Z,90.71
2022-11-29T07:25:39.954Z,90.09
2022-11-29T07:28:31.842Z,90.02
2022-11-29T07:31:16.282Z,90.17
2022-11-29T07:33:54.759Z,89.91
2022-11-29T07:36:38.211Z,89.94
2022-11-29T07:39:22.716Z,90.28
2022-11-29T07:41:55.168Z,90.45
2022-11-29T07:44:36.243Z,91.26
2022-11-29T07:47:02.920Z,91.80
2022-11-29T07:49:32.647Z,91.75
2022-11-29T07:51:59.354Z,91.36
2022-11-29T07:54:26.170Z,91.95
2022-11-29T07:56:52.823Z,92.34
2022-11-29T07:59:20.136Z,92.20
2022-11-29T08:01:47.131Z,92.78
2022-11-29T08:04:14.191Z,92.54
2022-11-29T08:06:40.925Z,92.96
2022-11-29T08:09:07.704Z,93.29
2022-11-29T08:11:34.303Z,92.76
2022-11-29T08:14:03.042Z,93.36
2022-11-29T08:16:30.304Z,92.51
2022-11-29T08:18:56.938Z,93.22
2022-11-29T08:21:23.672Z,92.80
2022-11-29T08:23:51.557Z,92.03
2022-11-29T08:26:19.376Z,91.64
2022-11-29T08:28:51.884Z,91.96
2022-11-29T08:31:20.452Z,92.34
2022-11-29T08:33:50.542Z,92.20
2022-11-29T08:36:20.967Z,91.23
2022-11-29T08:38:48.397Z,91.19
2022-11-29T08:41:16.818Z,91.14
2022-11-29T08:43:44.401Z,90.67
2022-11-29T08:46:17.969Z,90.88
2022-11-29T08:48:45.113Z,91.21
2022-11-29T08:51:11.873Z,90.64
2022-11-29T08:53:41.661Z,91.22
2022-11-29T08:59:04.321Z,91.03
2022-11-29T09:01:31.055Z,90.62
2022-11-29T09:04:02.982Z,90.89
2022-11-29T09:06:37.626Z,90.89
2022-11-29T09:09:06.368Z,90.87
2022-11-29T09:11:34.692Z,91.69
2022-11-29T09:14:04.168Z,92.31
2022-11-29T09:16:33.806Z,90.88
2022-11-29T09:19:00.675Z,91.81
2022-11-29T09:21:29.526Z,91.75
2022-11-29T09:23:59.351Z,91.01
2022-11-29T09:26:30.059Z,90.37
2022-11-29T09:29:01.144Z,89.68
2022-11-29T09:31:28.986Z,90.89
2022-11-29T09:33:57.094Z,90.54
2022-11-29T09:36:28.494Z,90.09
2022-11-29T09:38:56.807Z,89.86
2022-11-29T09:41:48.751Z,90.90
2022-11-29T09:44:38.739Z,91.80
2022-11-29T09:47:28.292Z,91.37
2022-11-29T09:50:24.486Z,91.01
2022-11-29T09:53:26.770Z,90.50
2022-11-29T09:56:16.053Z,89.86
2022-11-29T09:58:57.210Z,90.55
2022-11-29T10:01:30.938Z,90.43
2022-11-29T10:04:05.971Z,90.04
2022-11-29T10:06:41.016Z,88.90
2022-11-29T10:09:17.332Z,89.92
2022-11-29T10:11:57.079Z,90.51
2022-11-29T10:14:29.660Z,90.35
2022-11-29T10:17:18.237Z,90.20
2022-11-29T10:19:50.753Z,91.00
2022-11-29T10:22:39.148Z,91.23
2022-11-29T10:25:08.697Z,90.14
2022-11-29T10:27:39.906Z,89.38
2022-11-29T10:30:14.811Z,88.54
2022-11-29T10:32:44.227Z,90.11
2022-11-29T10:35:18.367Z,88.53
2022-11-29T10:38:22.293Z,89.83
2022-11-29T10:40:39.778Z,89.36
2022-11-29T10:43:06.465Z,88.16
2022-11-29T10:45:50.021Z,89.04
2022-11-29T10:48:19.361Z,89.66
2022-11-29T10:50:48.870Z,90.04
2022-11-29T10:53:20.246Z,89.99
2022-11-29T10:55:51.977Z,89.42
2022-11-29T10:58:27.894Z,88.74
2022-11-29T11:00:58.686Z,89.57
2022-11-29T11:03:33.983Z,89.51
2022-11-29T11:06:00.573Z,89.54
2022-11-29T11:08:28.828Z,88.87
2022-11-29T11:11:01.236Z,89.45
2022-11-29T11:13:31.030Z,90.11
2022-11-29T11:16:18.412Z,89.41
2022-11-29T11:18:49.938Z,89.32
2022-11-29T11:21:19.903Z,89.05
2022-11-29T11:23:54.005Z,89.74
2022-11-29T11:26:22.410Z,90.43
2022-11-29T11:29:03.260Z,90.22
2022-11-29T11:31:34.518Z,89.09
2022-11-29T11:34:34.260Z,87.04
2022-11-29T11:37:18.496Z,88.94
2022-11-29T11:39:47.847Z,88.17
2022-11-29T11:42:38.676Z,88.11
2022-11-29T11:45:27.958Z,86.66
2022-11-29T11:48:13.752Z,89.24
2022-11-29T11:50:44.725Z,89.39
2022-11-29T11:53:29.184Z,89.09
2022-11-29T11:56:00.577Z,88.99
2022-11-29T11:58:29.586Z,87.91
2022-11-29T12:01:13.537Z,87.19
2022-11-29T12:03:57.040Z,88.13
2022-11-29T12:06:36.288Z,88.81
2022-11-29T12:09:05.731Z,89.00
2022-11-29T12:11:41.298Z,88.25
2022-11-29T12:14:16.178Z,89.13
2022-11-29T12:16:43.388Z,88.46
2022-11-29T12:19:21.744Z,88.05
2022-11-29T12:21:53.157Z,88.24
2022-11-29T12:24:37.995Z,87.88
2022-11-29T12:27:06.195Z,88.53
2022-11-29T12:29:34.571Z,88.03
2022-11-29T12:32:04.238Z,87.80
2022-11-29T12:34:49.472Z,88.60
2022-11-29T12:37:57.901Z,87.90
2022-11-29T12:41:06.450Z,86.49
2022-11-29T12:43:49.574Z,87.93
2022-11-29T12:46:26.043Z,85.61
2022-11-29T12:49:05.619Z,86.66
2022-11-29T12:52:02.052Z,87.74
2022-11-29T12:54:58.310Z,87.68
2022-11-29T12:57:49.426Z,88.46
2022-11-29T13:00:18.997Z,88.04
2022-11-29T13:02:54.609Z,88.10
2022-11-29T13:05:41.558Z,88.26
2022-11-29T13:08:28.435Z,86.75
2022-11-29T13:11:06.978Z,88.25
2022-11-29T13:13:50.012Z,87.10
2022-11-29T13:16:54.342Z,86.45
2022-11-29T13:19:55.573Z,84.98
2022-11-29T13:22:42.888Z,87.97
2022-11-29T13:25:26.874Z,87.47
2022-11-29T13:28:02.439Z,87.65
2022-11-29T13:30:29.506Z,87.62
2022-11-29T13:33:06.846Z,87.46
2022-11-29T13:35:41.755Z,85.37
2022-11-29T13:38:19.083Z,87.69
2022-11-29T13:40:52.191Z,87.17
2022-11-29T13:43:41.604Z,86.29
2022-11-29T13:46:26.454Z,86.42
2022-11-29T13:48:54.708Z,87.44
2022-11-29T13:51:25.889Z,87.21
2022-11-29T13:53:56.897Z,86.65
2022-11-29T13:56:33.580Z,85.45
2022-11-29T13:59:03.621Z,86.78
2022-11-29T14:01:42.500Z,87.39
2022-11-29T14:04:26.636Z,87.19
2022-11-29T14:07:04.283Z,85.86
2022-11-29T14:09:47.533Z,85.20
2022-11-29T14:12:21.201Z,86.60
2022-11-29T14:15:05.785Z,87.38
2022-11-29T14:17:50.687Z,86.99
2022-11-29T14:20:23.340Z,86.62
2022-11-29T14:23:08.004Z,85.88
2022-11-29T14:26:00.987Z,86.34
2022-11-29T14:28:38.749Z,86.65
2022-11-29T14:31:07.379Z,86.22
2022-11-29T14:34:16.592Z,85.77
2022-11-29T14:36:54.825Z,86.60
2022-11-29T14:39:28.094Z,86.14
2022-11-29T14:42:17.094Z,85.54
2022-11-29T14:44:53.027Z,86.72
2022-11-29T14:47:34.648Z,86.96
2022-11-29T14:50:07.588Z,86.26
2022-11-29T14:52:38.964Z,86.75
2022-11-29T14:55:18.703Z,86.35
2022-11-29T14:57:49.639Z,86.55
2022-11-29T15:00:22.739Z,86.66
2022-11-29T15:03:12.116Z,86.40
2022-11-29T15:05:43.579Z,86.36
2022-11-29T15:08:28.113Z,86.28
2022-11-29T15:11:06.467Z,85.97
2022-11-29T15:13:41.069Z,86.56
2022-11-29T15:16:38.846Z,85.57
2022-11-29T15:19:41.736Z,85.54
2022-11-29T15:22:18.514Z,85.80
2022-11-29T15:25:14.510Z,85.25
2022-11-29T15:30:52.507Z,85.99
2022-11-29T15:33:26.201Z,86.76
2022-11-29T15:35:57.065Z,85.99
2022-11-29T15:38:27.549Z,86.78
2022-11-29T15:40:58.764Z,85.97
2022-11-29T15:43:37.341Z,85.25
2022-11-29T15:46:06.622Z,86.13
2022-11-29T15:48:36.160Z,86.68
2022-11-29T15:51:18.724Z,86.35
2022-11-29T15:54:12.371Z,87.03
2022-11-29T15:56:48.092Z,86.46
2022-11-29T15:59:36.024Z,86.44
2022-11-29T16:02:18.618Z,86.77
2022-11-29T16:04:51.105Z,87.23
2022-11-29T16:07:21.509Z,86.35
2022-11-29T16:09:56.619Z,86.66
2022-11-29T16:12:26.314Z,86.59
2022-11-29T16:14:57.934Z,86.34
2022-11-29T16:17:32.132Z,85.93
2022-11-29T16:20:19.850Z,85.91
2022-11-29T16:22:49.154Z,85.99
2022-11-29T16:25:21.526Z,86.40
2022-11-29T16:27:55.028Z,86.07
2022-11-29T16:30:25.893Z,86.69
2022-11-29T16:33:00.585Z,86.63
2022-11-29T16:35:37.580Z,86.83
2022-11-29T16:38:06.258Z,86.65
2022-11-29T16:40:36.540Z,87.21
2022-11-29T16:43:06.595Z,86.19
2022-11-29T16:45:36.528Z,86.90
2022-11-29T16:48:24.516Z,86.02
2022-11-29T16:51:19.344Z,85.83
2022-11-29T16:53:55.029Z,87.21
2022-11-29T16:56:26.135Z,87.00
2022-11-29T16:59:25.482Z,86.53
2022-11-29T17:01:43.368Z,86.45
2022-11-29T17:04:09.884Z,86.07
2022-11-29T17:06:37.110Z,86.94
2022-11-29T17:09:04.404Z,86.42
2022-11-29T17:11:32.553Z,86.57
2022-11-29T17:13:59.285Z,86.93
2022-11-29T17:16:26.022Z,86.74
2022-11-29T17:18:53.018Z,86.21
2022-11-29T17:21:21.397Z,86.30
2022-11-29T17:23:48.835Z,86.79
2022-11-29T17:26:15.595Z,86.79
2022-11-29T17:28:47.350Z,86.14
2022-11-29T17:31:16.276Z,86.37
2022-11-29T17:33:43.316Z,86.31
2022-11-29T17:36:12.616Z,85.98
2022-11-29T17:38:39.156Z,86.23
2022-11-29T17:41:08.512Z,86.85
2022-11-29T17:43:36.719Z,86.06
2022-11-29T17:46:17.251Z,86.21
2022-11-29T17:48:46.193Z,86.98
2022-11-29T17:51:43.608Z,86.53
2022-11-29T17:54:04.488Z,86.17
2022-11-29T17:56:31.375Z,86.57
2022-11-29T17:59:00.245Z,86.79
2022-11-29T18:01:29.159Z,86.63
2022-11-29T18:03:58.086Z,86.33
2022-11-29T18:06:27.164Z,85.46
2022-11-29T18:08:56.649Z,86.06
2022-11-29T18:11:24.859Z,86.64
2022-11-29T18:13:53.678Z,86.73
2022-11-29T18:16:35.268Z,86.40
2022-11-29T18:19:08.308Z,86.44
2022-11-29T18:21:35.645Z,86.27
2022-11-29T18:24:04.356Z,86.39
2022-11-29T18:26:32.901Z,87.25
2022-11-29T18:28:59.953Z,86.92
2022-11-29T18:31:29.765Z,86.31
2022-11-29T18:34:05.981Z,86.18
2022-11-29T18:36:35.446Z,86.26
2022-11-29T18:39:05.051Z,85.74
2022-11-29T18:41:32.110Z,85.65
2022-11-29T18:44:02.954Z,86.64
2022-11-29T18:46:33.059Z,86.40
2022-11-29T18:49:01.330Z,86.02
2022-11-29T18:51:29.847Z,86.62
2022-11-29T18:53:57.088Z,86.41
2022-11-29T18:56:26.000Z,86.82
2022-11-29T18:58:58.506Z,85.83
2022-11-29T19:01:28.086Z,86.74
2022-11-29T19:03:56.994Z,86.56
2022-11-29T19:06:27.940Z,86.17
2022-11-29T19:08:54.850Z,86.70
2022-11-29T19:11:23.536Z,86.35
2022-11-29T19:13:56.805Z,86.75
2022-11-29T19:16:25.647Z,86.94
2022-11-29T19:18:54.895Z,86.87
2022-11-29T19:21:23.047Z,86.59
2022-11-29T19:23:54.520Z,86.57
2022-11-29T19:26:22.310Z,87.24
2022-11-29T19:28:49.967Z,86.83
2022-11-29T19:31:18.701Z,86.72
2022-11-29T19:33:45.839Z,86.85
2022-11-29T19:36:19.820Z,87.19
2022-11-29T19:38:51.673Z,86.46
2022-11-29T19:41:23.192Z,86.59
2022-11-29T19:43:50.509Z,86.54
2022-11-29T19:46:20.840Z,85.92
2022-11-29T19:48:48.010Z,86.56
2022-11-29T19:51:19.175Z,86.71
2022-11-29T19:53:46.996Z,86.47
2022-11-29T19:56:17.449Z,86.55
2022-11-29T19:58:44.398Z,86.65
2022-11-29T20:01:17.552Z,86.59
2022-11-29T20:03:47.408Z,85.93
2022-11-29T20:06:16.129Z,86.46
2022-11-29T20:08:43.135Z,86.50
2022-11-29T20:11:11.261Z,86.66
2022-11-29T20:13:38.876Z,86.17
2022-11-29T20:16:09.856Z,86.69
2022-11-29T20:18:39.280Z,86.72
2022-11-29T20:21:08.132Z,86.86
2022-11-29T20:23:34.956Z,86.62
2022-11-29T20:26:01.842Z,86.83
2022-11-29T20:28:28.424Z,87.00
2022-11-29T20:30:55.379Z,86.84
2022-11-29T20:33:23.908Z,86.39
2022-11-29T20:36:02.237Z,86.82
2022-11-29T20:38:37.487Z,86.74
2022-11-29T20:41:14.873Z,86.66
2022-11-29T20:43:48.039Z,86.40
2022-11-29T20:46:14.775Z,86.38
2022-11-29T20:48:41.619Z,86.54
2022-11-29T20:51:10.973Z,86.05
2022-11-29T20:53:42.903Z,86.01
2022-11-29T20:56:11.397Z,86.02
2022-11-29T20:58:39.050Z,85.98
2022-11-29T21:01:06.556Z,85.73
2022-11-29T21:03:33.357Z,85.86
2022-11-29T21:06:03.014Z,85.97
2022-11-29T21:08:32.986Z,84.61
2022-11-29T21:11:08.993Z,84.40
2022-11-29T21:13:35.785Z,84.16
2022-11-29T21:16:20.993Z,84.22
2022-11-29T21:18:59.531Z,84.46
2022-11-29T21:22:11.252Z,83.56
2022-11-29T21:25:01.832Z,84.00
2022-11-29T21:27:32.837Z,84.43
2022-11-29T21:30:00.693Z,83.70
2022-11-29T21:32:27.762Z,83.79
2022-11-29T21:34:54.223Z,84.21
2022-11-29T21:37:25.029Z,83.88
2022-11-29T21:39:53.112Z,83.96
2022-11-29T21:42:20.382Z,84.02
2022-11-29T21:44:47.453Z,84.57
2022-11-29T21:47:14.358Z,83.66
2022-11-29T21:49:40.894Z,83.73
2022-11-29T21:52:07.662Z,83.59
2022-11-29T21:54:34.345Z,83.87
2022-11-29T21:57:01.693Z,83.77
2022-11-29T21:59:30.159Z,84.95
2022-11-29T22:01:57.134Z,84.50
2022-11-29T22:04:23.949Z,84.57
2022-11-29T22:06:50.841Z,84.95
2022-11-29T22:09:17.638Z,84.93
2022-11-29T22:11:44.625Z,85.04
2022-11-29T22:14:13.739Z,85.93
2022-11-29T22:16:46.259Z,85.64
2022-11-29T22:19:14.754Z,85.21
2022-11-29T22:21:47.002Z,85.23
2022-11-29T22:24:15.351Z,84.53
2022-11-29T22:26:43.780Z,84.68
2022-11-29T22:29:11.414Z,84.14
2022-11-29T22:31:38.391Z,84.31
2022-11-29T22:34:05.179Z,84.06
2022-11-29T22:36:31.842Z,83.46
2022-11-29T22:38:58.518Z,83.94
2022-11-29T22:41:25.679Z,83.25
2022-11-29T22:43:53.033Z,83.95
2022-11-29T22:46:22.209Z,83.72
2022-11-29T22:48:52.490Z,84.07
2022-11-29T22:51:21.743Z,83.89
2022-11-29T22:53:53.659Z,84.71
2022-11-29T22:56:21.376Z,83.57
2022-11-29T22:58:48.121Z,83.36
2022-11-29T23:01:20.290Z,83.63
2022-11-29T23:03:54.459Z,83.52
2022-11-29T23:06:29.453Z,83.23
2022-11-29T23:08:58.433Z,84.09
2022-11-29T23:11:27.717Z,83.78
2022-11-29T23:13:54.996Z,83.47
2022-11-29T23:16:23.963Z,83.66
2022-11-29T23:18:50.822Z,83.51
2022-11-29T23:21:27.027Z,84.62
2022-11-29T23:23:56.556Z,83.94
2022-11-29T23:26:26.817Z,83.37
2022-11-29T23:28:54.821Z,83.87
2022-11-29T23:31:25.195Z,83.73
2022-11-29T23:33:51.859Z,83.80
2022-11-29T23:36:18.859Z,83.79
2022-11-29T23:38:45.723Z,83.18
2022-11-29T23:41:12.747Z,83.43
2022-11-29T23:43:41.075Z,83.70
2022-11-29T23:46:16.748Z,84.20
2022-11-29T23:48:43.968Z,83.51
2022-11-29T23:51:11.309Z,83.76
2022-11-29T23:53:38.172Z,83.21
2022-11-29T23:56:08.588Z,83.46
2022-11-29T23:58:35.069Z,83.28
